Time;durP1;ratioP1;P1;durP2;ratioP2;P2;SDS_P1;SDS_P2;PMS_P1;PMS_P2;Temp;Humidity;BMP_temperature;BMP_pressure;BME280_temperature;BME280_humidity;BME280_pressure;Samples;Min_cycle;Max_cycle;Signal;HPM_P1;HPM_P2
2023/01/16 00:01:16;;;;;;;;;;;17.70;48.20;;;;;;4994823;28;19921;-53
2023/01/16 00:03:41;;;;;;;;;;;17.70;48.30;;;;;;5009571;28;19917;-53
2023/01/16 00:06:07;;;;;;;;;;;17.70;48.30;;;;;;5013789;28;20005;-53
2023/01/16 00:08:32;;;;;;;;;;;17.70;48.40;;;;;;5008132;28;19960;-53
2023/01/16 00:10:58;;;;;;;;;;;17.70;48.40;;;;;;5004601;28;19929;-53
2023/01/16 00:13:23;;;;;;;;;;;17.70;48.40;;;;;;5009019;28;20016;-53
2023/01/16 00:15:49;;;;;;;;;;;17.70;48.40;;;;;;5014259;28;19916;-53
2023/01/16 00:18:15;;;;;;;;;;;17.60;48.50;;;;;;5006306;28;19996;-53
2023/01/16 00:20:40;;;;;;;;;;;17.60;48.50;;;;;;5002906;28;20453;-52
2023/01/16 00:23:05;;;;;;;;;;;17.60;48.60;;;;;;5012828;28;20297;-53
2023/01/16 00:25:31;;;;;;;;;;;17.60;48.70;;;;;;5004023;28;20017;-53
2023/01/16 00:27:56;;;;;;;;;;;17.60;48.80;;;;;;4996288;28;19918;-53
2023/01/16 00:30:22;;;;;;;;;;;17.50;48.70;;;;;;4994773;28;20012;-53
2023/01/16 00:32:48;;;;;;;;;;;17.50;48.80;;;;;;4994273;28;19913;-53
2023/01/16 00:35:13;;;;;;;;;;;17.50;48.80;;;;;;4993974;28;19918;-52
2023/01/16 00:37:39;;;;;;;;;;;17.50;49.00;;;;;;5002372;28;20374;-53
2023/01/16 00:40:04;;;;;;;;;;;17.50;49.10;;;;;;5002971;28;20294;-52
2023/01/16 00:42:30;;;;;;;;;;;17.40;49.10;;;;;;4999925;28;20323;-52
2023/01/16 00:44:55;;;;;;;;;;;17.40;49.10;;;;;;5004248;28;19918;-52
2023/01/16 00:47:21;;;;;;;;;;;17.40;49.30;;;;;;5006076;28;19921;-53
2023/01/16 00:49:46;;;;;;;;;;;17.40;49.30;;;;;;5021833;28;19917;-52
2023/01/16 00:52:12;;;;;;;;;;;17.40;49.30;;;;;;5009681;28;19956;-53
2023/01/16 00:54:37;;;;;;;;;;;17.30;49.30;;;;;;5010524;28;19917;-53
2023/01/16 00:57:02;;;;;;;;;;;17.30;49.30;;;;;;4998106;28;19920;-52
2023/01/16 00:59:28;;;;;;;;;;;17.30;49.40;;;;;;5000123;28;19917;-53
2023/01/16 01:01:53;;;;;;;;;;;17.30;49.40;;;;;;4993847;28;19917;-53
2023/01/16 01:04:19;;;;;;;;;;;17.30;49.30;;;;;;4996319;28;19914;-53
2023/01/16 01:06:44;;;;;;;;;;;17.30;49.40;;;;;;4992941;28;20016;-53
2023/01/16 01:09:10;;;;;;;;;;;17.30;49.50;;;;;;5004845;28;19936;-53
2023/01/16 01:11:35;;;;;;;;;;;17.30;49.60;;;;;;4996295;28;19940;-52
2023/01/16 01:14:00;;;;;;;;;;;17.20;49.50;;;;;;5012055;28;19920;-53
2023/01/16 01:16:26;;;;;;;;;;;17.20;49.50;;;;;;5007871;28;19918;-53
2023/01/16 01:18:51;;;;;;;;;;;17.20;49.50;;;;;;5003550;28;20009;-53
2023/01/16 01:21:17;;;;;;;;;;;17.20;49.70;;;;;;5008453;28;19924;-53
2023/01/16 01:23:42;;;;;;;;;;;17.20;49.60;;;;;;4993506;28;19929;-52
2023/01/16 01:26:08;;;;;;;;;;;17.20;49.80;;;;;;4993706;28;19968;-53
2023/01/16 01:28:34;;;;;;;;;;;17.10;49.70;;;;;;5005731;28;19917;-52
2023/01/16 01:31:06;;;;;;;;;;;17.20;49.80;;;;;;5006984;28;20048;-53
2023/01/16 01:33:31;;;;;;;;;;;17.20;49.80;;;;;;5006387;28;20629;-53
2023/01/16 01:35:57;;;;;;;;;;;17.20;49.80;;;;;;4998945;28;19925;-52
2023/01/16 01:38:22;;;;;;;;;;;17.20;49.80;;;;;;5004320;28;19921;-52
2023/01/16 01:40:48;;;;;;;;;;;17.20;49.90;;;;;;5012172;28;20032;-53
2023/01/16 01:43:13;;;;;;;;;;;17.20;49.80;;;;;;5007805;28;19916;-53
2023/01/16 01:45:39;;;;;;;;;;;17.20;50.40;;;;;;5001894;28;19913;-53
2023/01/16 01:48:13;;;;;;;;;;;17.10;49.70;;;;;;5001108;28;19913;-52
2023/01/16 01:50:39;;;;;;;;;;;17.10;49.80;;;;;;4995812;28;19921;-53
2023/01/16 01:53:09;;;;;;;;;;;17.10;49.90;;;;;;5004852;28;19911;-53
2023/01/16 01:55:35;;;;;;;;;;;17.10;49.90;;;;;;5039583;28;19964;-53
2023/01/16 01:58:00;;;;;;;;;;;17.10;49.90;;;;;;5034352;28;19941;-52
2023/01/16 02:00:26;;;;;;;;;;;17.10;49.90;;;;;;5010320;28;19927;-52
2023/01/16 02:03:03;;;;;;;;;;;17.10;49.90;;;;;;5010717;28;19960;-52
2023/01/16 02:05:30;;;;;;;;;;;17.10;49.90;;;;;;4992532;28;19924;-52
2023/01/16 02:07:56;;;;;;;;;;;17.10;50.00;;;;;;5031416;28;20358;-52
2023/01/16 02:10:33;;;;;;;;;;;17.00;49.90;;;;;;4995378;28;20013;-52
2023/01/16 02:12:58;;;;;;;;;;;17.00;49.90;;;;;;5028352;28;20057;-52
2023/01/16 02:15:24;;;;;;;;;;;17.10;49.90;;;;;;5001860;28;20003;-52
2023/01/16 02:20:37;;;;;;;;;;;17.40;49.70;;;;;;5006699;28;20440;-52
2023/01/16 02:23:18;;;;;;;;;;;17.70;49.20;;;;;;5024988;28;20298;-52
2023/01/16 02:26:02;;;;;;;;;;;17.90;48.60;;;;;;4998187;28;19921;-52
2023/01/16 02:28:46;;;;;;;;;;;18.30;48.00;;;;;;4992956;28;19914;-52
2023/01/16 02:31:11;;;;;;;;;;;18.80;47.10;;;;;;5000632;28;20000;-52
2023/01/16 02:33:55;;;;;;;;;;;19.30;46.10;;;;;;5006447;28;20042;-54
2023/01/16 02:36:23;;;;;;;;;;;19.60;45.50;;;;;;4998259;28;21352;-54
2023/01/16 02:39:07;;;;;;;;;;;19.70;45.10;;;;;;5004531;28;20326;-54
2023/01/16 02:41:41;;;;;;;;;;;19.70;45.20;;;;;;5008284;28;20358;-54
2023/01/16 02:44:25;;;;;;;;;;;19.40;45.50;;;;;;5000583;28;20409;-52
2023/01/16 02:46:59;;;;;;;;;;;19.20;45.90;;;;;;4992243;28;19914;-52
2023/01/16 02:49:42;;;;;;;;;;;19.10;46.30;;;;;;5033237;28;19921;-51
2023/01/16 02:52:17;;;;;;;;;;;19.00;46.60;;;;;;5039803;28;19955;-54
2023/01/16 02:55:03;;;;;;;;;;;18.90;46.70;;;;;;5008169;28;19949;-52
2023/01/16 02:57:48;;;;;;;;;;;18.80;46.80;;;;;;5034629;28;19921;-54
2023/01/16 03:00:16;;;;;;;;;;;18.70;47.10;;;;;;5037077;28;20607;-53
2023/01/16 03:02:43;;;;;;;;;;;18.60;47.20;;;;;;5008326;28;19913;-54
2023/01/16 03:05:09;;;;;;;;;;;18.60;47.50;;;;;;5025646;28;20260;-53
2023/01/16 03:07:50;;;;;;;;;;;18.50;47.40;;;;;;5009689;28;19921;-53
2023/01/16 03:10:22;;;;;;;;;;;18.40;47.30;;;;;;5026478;28;19964;-53
2023/01/16 03:13:01;;;;;;;;;;;18.40;47.40;;;;;;5006289;28;20004;-53
2023/01/16 03:15:32;;;;;;;;;;;18.30;47.60;;;;;;4993922;28;19968;-53
2023/01/16 03:17:57;;;;;;;;;;;18.30;47.80;;;;;;5011140;28;19913;-53
2023/01/16 03:20:26;;;;;;;;;;;18.20;47.80;;;;;;5011182;28;19917;-51
2023/01/16 03:22:58;;;;;;;;;;;18.20;47.80;;;;;;4997895;28;19933;-51
2023/01/16 03:25:28;;;;;;;;;;;18.20;48.00;;;;;;5026583;28;20370;-52
2023/01/16 03:27:55;;;;;;;;;;;18.10;48.10;;;;;;5032554;28;20274;-52
2023/01/16 03:30:27;;;;;;;;;;;18.00;48.20;;;;;;5032171;28;19968;-52
2023/01/16 03:32:54;;;;;;;;;;;18.00;48.30;;;;;;5001237;28;19920;-52
2023/01/16 03:35:20;;;;;;;;;;;18.00;48.40;;;;;;5008121;28;19918;-52
2023/01/16 03:37:47;;;;;;;;;;;17.90;48.40;;;;;;5008336;28;20377;-52
2023/01/16 03:40:13;;;;;;;;;;;17.90;48.50;;;;;;5036926;28;19924;-51
2023/01/16 03:42:41;;;;;;;;;;;17.90;48.60;;;;;;5002020;28;19913;-52
2023/01/16 03:45:11;;;;;;;;;;;17.90;48.60;;;;;;5006359;28;19953;-52
2023/01/16 03:47:38;;;;;;;;;;;17.90;48.70;;;;;;5004180;28;19918;-51
2023/01/16 03:50:04;;;;;;;;;;;17.80;48.80;;;;;;5028297;28;20289;-52
2023/01/16 03:52:31;;;;;;;;;;;17.80;48.70;;;;;;4998637;28;19965;-52
2023/01/16 03:55:16;;;;;;;;;;;17.80;49.40;;;;;;5007554;28;19917;-52
2023/01/16 03:57:47;;;;;;;;;;;17.80;48.80;;;;;;5009384;28;19913;-52
2023/01/16 04:00:12;;;;;;;;;;;17.80;48.80;;;;;;5031092;28;19926;-52
2023/01/16 04:02:50;;;;;;;;;;;17.80;48.90;;;;;;5005463;28;19917;-52
2023/01/16 04:05:20;;;;;;;;;;;17.80;48.80;;;;;;5011661;28;20396;-52
2023/01/16 04:07:47;;;;;;;;;;;17.80;48.70;;;;;;5037949;28;19914;-52
2023/01/16 04:10:15;;;;;;;;;;;17.80;48.60;;;;;;5035481;28;19914;-52
2023/01/16 04:12:53;;;;;;;;;;;17.80;48.50;;;;;;5011324;28;19913;-52
2023/01/16 04:15:19;;;;;;;;;;;17.80;48.50;;;;;;5032739;28;19913;-52
2023/01/16 04:17:44;;;;;;;;;;;17.80;48.40;;;;;;5006712;28;19918;-53
2023/01/16 04:20:10;;;;;;;;;;;17.80;48.40;;;;;;5005090;28;19989;-53
2023/01/16 04:22:35;;;;;;;;;;;17.90;48.50;;;;;;4998625;28;19928;-52
2023/01/16 04:25:02;;;;;;;;;;;17.80;48.40;;;;;;5027658;28;20019;-52
2023/01/16 04:27:27;;;;;;;;;;;17.90;48.50;;;;;;5009648;28;19921;-52
2023/01/16 04:29:53;;;;;;;;;;;17.90;48.60;;;;;;5013805;28;19913;-52
2023/01/16 04:32:18;;;;;;;;;;;17.80;48.50;;;;;;5008240;28;19994;-52
2023/01/16 04:34:44;;;;;;;;;;;17.90;48.70;;;;;;5000083;28;20278;-52
2023/01/16 04:37:13;;;;;;;;;;;17.90;48.70;;;;;;5003700;28;19918;-52
2023/01/16 04:39:38;;;;;;;;;;;17.90;48.60;;;;;;5004383;28;20769;-52
2023/01/16 04:42:03;;;;;;;;;;;17.80;48.50;;;;;;4994529;28;19918;-52
2023/01/16 04:44:29;;;;;;;;;;;17.80;48.50;;;;;;5003740;28;19985;-52
2023/01/16 04:46:54;;;;;;;;;;;17.70;48.60;;;;;;4999894;28;20004;-52
2023/01/16 04:49:20;;;;;;;;;;;17.70;48.70;;;;;;5008493;28;19963;-53
2023/01/16 04:51:45;;;;;;;;;;;17.80;48.80;;;;;;5004623;28;19914;-51
2023/01/16 04:54:13;;;;;;;;;;;17.70;48.70;;;;;;5009055;28;19917;-52
2023/01/16 04:56:38;;;;;;;;;;;17.70;48.80;;;;;;5004640;28;19923;-52
2023/01/16 04:59:04;;;;;;;;;;;17.80;48.90;;;;;;4996763;28;20008;-51
2023/01/16 05:01:34;;;;;;;;;;;17.80;48.80;;;;;;5009843;28;19925;-52
2023/01/16 05:04:06;;;;;;;;;;;17.80;48.80;;;;;;5007043;28;19921;-52
2023/01/16 05:06:31;;;;;;;;;;;17.80;48.80;;;;;;5003454;28;19913;-52
2023/01/16 05:08:57;;;;;;;;;;;17.80;48.80;;;;;;4998190;28;19921;-52
2023/01/16 05:11:22;;;;;;;;;;;17.80;48.70;;;;;;4993329;28;19967;-52
2023/01/16 05:13:48;;;;;;;;;;;17.80;48.80;;;;;;5000651;28;19914;-52
2023/01/16 05:16:13;;;;;;;;;;;17.80;48.80;;;;;;4996275;28;20631;-52
2023/01/16 05:18:38;;;;;;;;;;;17.80;48.70;;;;;;4999560;28;20346;-52
2023/01/16 05:21:04;;;;;;;;;;;17.80;48.80;;;;;;5009196;28;20305;-52
2023/01/16 05:23:32;;;;;;;;;;;17.80;48.80;;;;;;5001976;28;20301;-52
2023/01/16 05:25:58;;;;;;;;;;;17.80;48.80;;;;;;4992969;28;19913;-52
2023/01/16 05:28:24;;;;;;;;;;;17.70;48.80;;;;;;5007235;28;19918;-52
2023/01/16 05:30:49;;;;;;;;;;;17.70;48.80;;;;;;4996522;28;20001;-51
2023/01/16 05:33:15;;;;;;;;;;;17.70;49.00;;;;;;5004746;28;19975;-54
2023/01/16 05:35:40;;;;;;;;;;;17.70;49.00;;;;;;5000941;28;20283;-54
2023/01/16 05:38:06;;;;;;;;;;;17.70;49.00;;;;;;4996693;28;19964;-52
2023/01/16 05:40:31;;;;;;;;;;;17.70;49.10;;;;;;4996692;28;19964;-52
2023/01/16 05:42:56;;;;;;;;;;;17.70;49.10;;;;;;5001658;28;20424;-52
2023/01/16 05:45:22;;;;;;;;;;;17.70;49.10;;;;;;5001742;28;20389;-52
2023/01/16 05:47:47;;;;;;;;;;;17.70;49.00;;;;;;5008918;28;20392;-54
2023/01/16 05:50:13;;;;;;;;;;;17.70;49.10;;;;;;5010264;28;20374;-51
2023/01/16 05:52:38;;;;;;;;;;;17.70;49.10;;;;;;5004334;28;20373;-54
2023/01/16 05:55:04;;;;;;;;;;;17.60;49.00;;;;;;4992314;28;20134;-51
2023/01/16 05:57:29;;;;;;;;;;;17.60;49.00;;;;;;5027694;28;19921;-53
2023/01/16 05:59:55;;;;;;;;;;;17.60;49.00;;;;;;4999950;28;20356;-53
2023/01/16 06:02:20;;;;;;;;;;;17.60;49.10;;;;;;5011986;28;19953;-53
2023/01/16 06:04:47;;;;;;;;;;;17.60;49.00;;;;;;5010754;28;20449;-53
2023/01/16 06:07:12;;;;;;;;;;;17.70;48.90;;;;;;5005434;28;19914;-53
2023/01/16 06:09:38;;;;;;;;;;;17.70;48.90;;;;;;4996411;28;19925;-53
2023/01/16 06:12:03;;;;;;;;;;;17.70;48.80;;;;;;4992847;28;20290;-53
2023/01/16 06:14:28;;;;;;;;;;;17.60;48.80;;;;;;5012279;28;20381;-53
2023/01/16 06:16:54;;;;;;;;;;;17.70;48.90;;;;;;5011918;28;20014;-53
2023/01/16 06:19:19;;;;;;;;;;;17.70;48.80;;;;;;5019615;28;20010;-54
2023/01/16 06:21:45;;;;;;;;;;;17.70;48.70;;;;;;5031502;28;19967;-53
2023/01/16 06:24:10;;;;;;;;;;;17.70;48.70;;;;;;5020000;28;19922;-53
2023/01/16 06:26:36;;;;;;;;;;;17.70;48.70;;;;;;5006021;28;19909;-53
2023/01/16 06:29:01;;;;;;;;;;;17.70;48.70;;;;;;5014968;28;19913;-53
2023/01/16 06:31:27;;;;;;;;;;;17.70;48.70;;;;;;5003920;28;19914;-53
2023/01/16 06:33:52;;;;;;;;;;;17.70;48.70;;;;;;5013438;28;19924;-53
2023/01/16 06:36:17;;;;;;;;;;;17.70;48.70;;;;;;5001066;28;19914;-53
2023/01/16 06:38:43;;;;;;;;;;;17.70;48.80;;;;;;5012935;28;19913;-53
2023/01/16 06:41:09;;;;;;;;;;;17.70;48.80;;;;;;5008401;28;19928;-53
2023/01/16 06:43:35;;;;;;;;;;;17.70;48.80;;;;;;5002151;28;19925;-53
2023/01/16 06:46:00;;;;;;;;;;;17.70;48.80;;;;;;4995943;28;19914;-53
2023/01/16 06:48:26;;;;;;;;;;;17.70;48.90;;;;;;4996223;28;19914;-53
2023/01/16 06:50:53;;;;;;;;;;;17.70;48.90;;;;;;5002241;28;19913;-53
2023/01/16 06:53:18;;;;;;;;;;;17.70;48.90;;;;;;5001855;28;19920;-53
2023/01/16 06:55:43;;;;;;;;;;;17.70;48.90;;;;;;4998954;28;19921;-53
2023/01/16 06:58:09;;;;;;;;;;;17.70;48.90;;;;;;5012345;28;19918;-52
2023/01/16 07:00:34;;;;;;;;;;;17.70;48.90;;;;;;5000679;28;19921;-53
2023/01/16 07:03:00;;;;;;;;;;;17.70;48.90;;;;;;5014826;28;19914;-53
2023/01/16 07:05:26;;;;;;;;;;;17.60;48.80;;;;;;5012515;28;20332;-53
2023/01/16 07:07:51;;;;;;;;;;;17.60;48.90;;;;;;5010484;28;19914;-53
2023/01/16 07:10:17;;;;;;;;;;;17.60;48.80;;;;;;5013066;28;19913;-53
2023/01/16 07:12:42;;;;;;;;;;;17.70;48.70;;;;;;5009642;28;20008;-52
2023/01/16 07:23:20;;;;;;;;;;;17.60;48.90;;;;;;5013873;28;20309;-52
2023/01/16 07:25:46;;;;;;;;;;;17.60;48.90;;;;;;5000542;28;19913;-52
2023/01/16 07:28:11;;;;;;;;;;;17.60;48.90;;;;;;5001804;28;20375;-52
2023/01/16 07:30:37;;;;;;;;;;;17.60;48.90;;;;;;4997678;28;20007;-52
2023/01/16 07:33:02;;;;;;;;;;;17.60;48.90;;;;;;5026818;28;19910;-52
2023/01/16 07:35:28;;;;;;;;;;;17.60;48.90;;;;;;4999894;28;20397;-52
2023/01/16 07:37:56;;;;;;;;;;;17.60;48.90;;;;;;5000130;28;19918;-53
2023/01/16 07:40:22;;;;;;;;;;;17.60;49.00;;;;;;4994651;28;20385;-51
2023/01/16 07:42:49;;;;;;;;;;;17.60;48.90;;;;;;4997642;28;19913;-51
2023/01/16 07:45:14;;;;;;;;;;;17.60;48.90;;;;;;5007110;28;19924;-52
2023/01/16 07:47:40;;;;;;;;;;;17.60;48.90;;;;;;5014539;28;20362;-52
2023/01/16 07:50:05;;;;;;;;;;;17.60;48.90;;;;;;5008208;28;24328;-52
2023/01/16 07:52:31;;;;;;;;;;;17.60;49.00;;;;;;4997395;28;19960;-52
2023/01/16 07:54:56;;;;;;;;;;;17.60;48.90;;;;;;5007384;28;20242;-52
2023/01/16 07:57:22;;;;;;;;;;;17.60;49.00;;;;;;5007044;28;19914;-52
2023/01/16 07:59:47;;;;;;;;;;;17.60;49.00;;;;;;5007580;28;19917;-51
2023/01/16 08:02:12;;;;;;;;;;;17.60;49.00;;;;;;5013863;28;19960;-51
2023/01/16 08:04:38;;;;;;;;;;;17.60;49.10;;;;;;5001301;28;19920;-52
2023/01/16 08:07:03;;;;;;;;;;;17.60;49.00;;;;;;5009058;28;20389;-52
2023/01/16 08:09:29;;;;;;;;;;;17.60;49.00;;;;;;4998334;28;19995;-52
2023/01/16 08:11:54;;;;;;;;;;;17.60;49.10;;;;;;5013288;28;19952;-51
2023/01/16 08:14:20;;;;;;;;;;;17.70;49.00;;;;;;5013802;28;20366;-51
2023/01/16 08:16:45;;;;;;;;;;;18.30;48.50;;;;;;5001143;28;19983;-52
2023/01/16 08:19:11;;;;;;;;;;;19.50;46.30;;;;;;5015967;28;20009;-52
2023/01/16 08:21:36;;;;;;;;;;;20.40;44.40;;;;;;5008846;28;19922;-52
2023/01/16 08:24:01;;;;;;;;;;;21.20;43.00;;;;;;5014444;28;19921;-52
2023/01/16 08:26:27;;;;;;;;;;;21.50;42.20;;;;;;5008947;28;19964;-52
2023/01/16 08:28:53;;;;;;;;;;;21.70;42.00;;;;;;5003548;28;19920;-51
2023/01/16 08:31:18;;;;;;;;;;;21.70;41.80;;;;;;5008317;28;19921;-51
2023/01/16 08:33:45;;;;;;;;;;;21.90;41.60;;;;;;4996318;28;19917;-52
2023/01/16 08:36:10;;;;;;;;;;;22.10;41.40;;;;;;5004875;28;19914;-52
2023/01/16 08:38:36;;;;;;;;;;;22.40;41.10;;;;;;4998033;28;19929;-52
2023/01/16 08:41:01;;;;;;;;;;;22.50;40.60;;;;;;5006671;28;19925;-51
2023/01/16 08:51:44;;;;;;;;;;;23.10;39.80;;;;;;4999309;28;19976;-53
2023/01/16 08:54:09;;;;;;;;;;;23.20;39.60;;;;;;5004516;28;19914;-53
2023/01/16 08:56:40;;;;;;;;;;;23.20;39.60;;;;;;4995880;28;19929;-52
2023/01/16 08:59:05;;;;;;;;;;;23.30;39.60;;;;;;4999840;28;19918;-53
2023/01/16 09:01:31;;;;;;;;;;;23.30;39.50;;;;;;5002346;28;20424;-52
2023/01/16 09:03:56;;;;;;;;;;;23.40;39.40;;;;;;5011485;28;19984;-52
2023/01/16 09:06:22;;;;;;;;;;;23.40;39.30;;;;;;5004269;28;20360;-53
2023/01/16 09:08:47;;;;;;;;;;;23.50;39.30;;;;;;5004623;28;20361;-52
2023/01/16 09:14:00;;;;;;;;;;;23.50;39.20;;;;;;5002651;28;19921;-53
2023/01/16 09:16:25;;;;;;;;;;;23.50;39.10;;;;;;5002947;28;19924;-53
2023/01/16 09:18:51;;;;;;;;;;;23.60;39.70;;;;;;5004948;28;19917;-53
2023/01/16 09:21:18;;;;;;;;;;;23.70;39.10;;;;;;5008420;28;19917;-51
2023/01/16 09:23:44;;;;;;;;;;;23.70;39.00;;;;;;5004831;28;19958;-52
2023/01/16 09:26:10;;;;;;;;;;;23.70;39.10;;;;;;5003163;28;20215;-52
2023/01/16 09:28:35;;;;;;;;;;;23.70;39.00;;;;;;5009528;28;19918;-52
2023/01/16 09:31:01;;;;;;;;;;;23.70;39.00;;;;;;5017323;28;19960;-52
2023/01/16 09:33:26;;;;;;;;;;;23.70;39.00;;;;;;5009608;28;19914;-52
2023/01/16 09:35:52;;;;;;;;;;;23.70;39.00;;;;;;5012248;28;19928;-52
2023/01/16 09:38:17;;;;;;;;;;;23.70;39.00;;;;;;5002855;28;19913;-52
2023/01/16 09:40:49;;;;;;;;;;;23.70;39.00;;;;;;5003840;28;19925;-52
2023/01/16 09:43:35;;;;;;;;;;;23.70;39.10;;;;;;5010668;28;20068;-52
2023/01/16 09:46:17;;;;;;;;;;;23.70;39.20;;;;;;5031300;28;19925;-52
2023/01/16 09:48:47;;;;;;;;;;;23.70;39.20;;;;;;5012974;28;19914;-52
2023/01/16 09:51:14;;;;;;;;;;;23.70;39.20;;;;;;5005991;28;19914;-52
2023/01/16 09:59:23;;;;;;;;;;;23.60;39.20;;;;;;5033033;28;19964;-52
2023/01/16 10:01:52;;;;;;;;;;;23.70;39.20;;;;;;5006034;28;19918;-52
2023/01/16 10:04:21;;;;;;;;;;;23.70;39.20;;;;;;5002506;28;19920;-53
2023/01/16 10:06:47;;;;;;;;;;;23.70;39.20;;;;;;4998376;28;19914;-52
2023/01/16 10:09:15;;;;;;;;;;;23.70;39.20;;;;;;5005948;28;19968;-52
2023/01/16 10:12:01;;;;;;;;;;;23.70;39.10;;;;;;5011070;28;19936;-52
2023/01/16 10:14:51;;;;;;;;;;;23.70;39.10;;;;;;5000241;28;20001;-51
2023/01/16 10:17:37;;;;;;;;;;;23.70;39.20;;;;;;5029168;28;19976;-51
2023/01/16 10:20:05;;;;;;;;;;;23.70;39.30;;;;;;5005309;28;19917;-53
2023/01/16 10:22:34;;;;;;;;;;;23.70;39.30;;;;;;5007417;28;19921;-52
2023/01/16 10:25:11;;;;;;;;;;;23.70;39.40;;;;;;4998832;28;19933;-51
2023/01/16 10:27:40;;;;;;;;;;;23.80;39.50;;;;;;5035621;28;20448;-53
2023/01/16 10:30:10;;;;;;;;;;;23.80;39.40;;;;;;5009360;28;19945;-51
2023/01/16 10:32:47;;;;;;;;;;;23.80;39.40;;;;;;5012236;28;19913;-51
2023/01/16 10:35:17;;;;;;;;;;;23.80;39.30;;;;;;5009674;28;19914;-51
2023/01/16 10:37:43;;;;;;;;;;;23.80;39.30;;;;;;5023210;28;19910;-53
2023/01/16 10:40:17;;;;;;;;;;;23.80;39.30;;;;;;5038663;28;20337;-52
2023/01/16 10:50:58;;;;;;;;;;;23.90;39.10;;;;;;5035513;28;19995;-52
2023/01/16 10:53:23;;;;;;;;;;;23.90;39.20;;;;;;5010455;28;19949;-52
2023/01/16 10:55:51;;;;;;;;;;;23.90;39.20;;;;;;4997608;28;19925;-52
2023/01/16 10:58:19;;;;;;;;;;;23.90;39.20;;;;;;5008362;28;19924;-52
2023/01/16 11:00:44;;;;;;;;;;;23.90;39.10;;;;;;5036773;28;20322;-51
2023/01/16 11:03:11;;;;;;;;;;;23.90;39.20;;;;;;5001824;28;20044;-51
2023/01/16 11:05:36;;;;;;;;;;;24.00;39.20;;;;;;4999848;28;20562;-50
2023/01/16 11:08:06;;;;;;;;;;;24.00;39.30;;;;;;5005481;28;19914;-52
2023/01/16 11:10:31;;;;;;;;;;;24.00;39.20;;;;;;5014117;28;19944;-50
2023/01/16 11:18:29;;;;;;;;;;;24.00;39.10;;;;;;5015411;28;19964;-51
2023/01/16 11:21:12;;;;;;;;;;;24.00;39.10;;;;;;5009490;28;20180;-51
2023/01/16 11:23:38;;;;;;;;;;;24.00;39.30;;;;;;5009194;28;19978;-52
2023/01/16 11:26:04;;;;;;;;;;;24.00;39.30;;;;;;5024625;28;20517;-52
2023/01/16 11:28:30;;;;;;;;;;;24.00;39.20;;;;;;5006777;28;19971;-54
2023/01/16 11:31:19;;;;;;;;;;;24.00;39.30;;;;;;5045707;28;19920;-52
2023/01/16 11:33:47;;;;;;;;;;;24.00;39.30;;;;;;5012614;28;19917;-53
2023/01/16 11:36:14;;;;;;;;;;;24.00;39.30;;;;;;5044096;28;19913;-52
2023/01/16 11:38:42;;;;;;;;;;;24.00;39.30;;;;;;5015436;28;20366;-51
2023/01/16 11:41:08;;;;;;;;;;;24.00;39.30;;;;;;5039177;28;19921;-52
2023/01/16 11:46:26;;;;;;;;;;;24.00;39.40;;;;;;5004497;28;19920;-51
2023/01/16 11:48:53;;;;;;;;;;;24.00;39.50;;;;;;5011617;28;20329;-51
2023/01/16 11:51:21;;;;;;;;;;;23.90;39.60;;;;;;4999495;28;19976;-52
2023/01/16 11:53:47;;;;;;;;;;;23.80;39.70;;;;;;5008150;28;19918;-51
2023/01/16 11:56:31;;;;;;;;;;;23.80;39.70;;;;;;5010294;28;19913;-51
2023/01/16 11:59:14;;;;;;;;;;;23.80;39.70;;;;;;5009277;28;20388;-52
2023/01/16 12:04:33;;;;;;;;;;;23.90;39.60;;;;;;5006415;28;19976;-52
2023/01/16 12:07:11;;;;;;;;;;;24.00;39.50;;;;;;5037664;28;19914;-52
2023/01/16 12:09:39;;;;;;;;;;;24.00;39.40;;;;;;5028506;28;19964;-52
2023/01/16 12:15:30;;;;;;;;;;;24.10;39.20;;;;;;5035865;28;19925;-52
2023/01/16 12:18:08;;;;;;;;;;;24.10;39.20;;;;;;5007302;28;19917;-52
2023/01/16 12:20:39;;;;;;;;;;;24.10;39.10;;;;;;5001975;28;19929;-51
2023/01/16 12:23:21;;;;;;;;;;;24.20;39.30;;;;;;5003401;28;19921;-52
2023/01/16 12:25:56;;;;;;;;;;;24.10;39.20;;;;;;5008186;28;19949;-52
2023/01/16 12:28:25;;;;;;;;;;;24.20;39.30;;;;;;5008914;28;20397;-52
2023/01/16 12:31:10;;;;;;;;;;;24.20;39.20;;;;;;5013062;28;19913;-52
2023/01/16 12:33:48;;;;;;;;;;;24.20;39.20;;;;;;5040891;28;19975;-51
2023/01/16 12:36:15;;;;;;;;;;;24.20;39.30;;;;;;5013581;28;19947;-52
2023/01/16 12:38:53;;;;;;;;;;;24.20;39.20;;;;;;5002656;28;20763;-52
2023/01/16 12:44:22;;;;;;;;;;;24.20;39.20;;;;;;5009754;28;19920;-52
2023/01/16 12:46:52;;;;;;;;;;;24.30;39.20;;;;;;5000944;28;20273;-52
2023/01/16 12:49:17;;;;;;;;;;;24.30;39.80;;;;;;5006977;28;19913;-53
2023/01/16 12:51:49;;;;;;;;;;;24.30;39.20;;;;;;5000809;28;20280;-52
2023/01/16 12:54:18;;;;;;;;;;;24.30;39.20;;;;;;5006432;28;20009;-52
2023/01/16 12:56:46;;;;;;;;;;;24.30;39.30;;;;;;5001252;28;19914;-53
2023/01/16 12:59:11;;;;;;;;;;;24.30;39.30;;;;;;4998187;28;19969;-52
2023/01/16 13:01:38;;;;;;;;;;;24.30;39.30;;;;;;5006015;28;19917;-53
2023/01/16 13:04:20;;;;;;;;;;;24.30;39.30;;;;;;5012654;28;19910;-53
2023/01/16 13:06:52;;;;;;;;;;;24.30;39.30;;;;;;5006822;28;19918;-53
2023/01/16 13:09:20;;;;;;;;;;;24.30;39.20;;;;;;5002751;28;19914;-52
2023/01/16 13:14:55;;;;;;;;;;;24.20;39.10;;;;;;5000851;28;19976;-53
2023/01/16 13:17:24;;;;;;;;;;;24.20;39.20;;;;;;5034775;28;19941;-52
2023/01/16 13:19:51;;;;;;;;;;;24.20;39.20;;;;;;5034161;28;20288;-53
2023/01/16 13:22:19;;;;;;;;;;;24.20;39.20;;;;;;5004678;28;19921;-53
2023/01/16 13:25:03;;;;;;;;;;;24.20;39.30;;;;;;5000201;28;19921;-52
2023/01/16 13:27:36;;;;;;;;;;;24.30;39.30;;;;;;5010019;28;19925;-53
2023/01/16 13:30:08;;;;;;;;;;;24.30;39.20;;;;;;5030421;28;20332;-53
2023/01/16 13:32:34;;;;;;;;;;;24.30;39.10;;;;;;4999535;28;19972;-52
2023/01/16 13:35:04;;;;;;;;;;;24.30;39.10;;;;;;5004416;28;19918;-53
2023/01/16 13:37:48;;;;;;;;;;;24.30;39.10;;;;;;5007481;28;19922;-53
2023/01/16 13:40:17;;;;;;;;;;;24.30;39.00;;;;;;5000377;28;20001;-51
2023/01/16 13:45:47;;;;;;;;;;;24.40;39.10;;;;;;5004562;28;19917;-51
2023/01/16 13:45:50;;;;;;;;;;;24.40;39.00;;;;;;5026581;28;19917;-52
2023/01/16 13:48:17;;;;;;;;;;;24.40;39.00;;;;;;5003790;28;19919;-52
2023/01/16 13:50:44;;;;;;;;;;;24.30;39.00;;;;;;5030737;28;19921;-52
2023/01/16 13:53:11;;;;;;;;;;;24.40;39.00;;;;;;5033896;28;19921;-52
2023/01/16 13:55:40;;;;;;;;;;;24.40;39.00;;;;;;5034511;28;19921;-51
2023/01/16 13:58:07;;;;;;;;;;;24.40;39.00;;;;;;5036796;28;19923;-51
2023/01/16 14:00:32;;;;;;;;;;;24.40;38.90;;;;;;5001033;28;19917;-52
2023/01/16 14:03:17;;;;;;;;;;;24.40;39.00;;;;;;5012024;28;19909;-51
2023/01/16 14:05:44;;;;;;;;;;;24.40;39.10;;;;;;5000742;28;19921;-51
2023/01/16 14:11:15;;;;;;;;;;;24.50;39.00;;;;;;5012232;28;19920;-51
2023/01/16 14:13:41;;;;;;;;;;;24.50;38.80;;;;;;5002700;28;20008;-51
2023/01/16 14:16:32;;;;;;;;;;;24.50;38.90;;;;;;5010784;28;20016;-51
2023/01/16 14:19:00;;;;;;;;;;;24.50;38.80;;;;;;5003539;28;19913;-51
2023/01/16 14:21:40;;;;;;;;;;;24.50;38.80;;;;;;4999448;28;19921;-52
2023/01/16 14:24:16;;;;;;;;;;;24.50;38.80;;;;;;5006929;28;19926;-51
2023/01/16 14:26:48;;;;;;;;;;;24.50;38.90;;;;;;5038181;28;20288;-51
2023/01/16 14:29:13;;;;;;;;;;;24.50;38.80;;;;;;5009799;28;19945;-52
2023/01/16 14:31:39;;;;;;;;;;;24.50;38.90;;;;;;5017998;28;20004;-51
2023/01/16 14:34:05;;;;;;;;;;;24.50;38.90;;;;;;5012137;28;19918;-51
2023/01/16 14:36:32;;;;;;;;;;;24.50;38.90;;;;;;5024835;28;20267;-52
2023/01/16 14:38:58;;;;;;;;;;;24.50;38.80;;;;;;5035800;28;19914;-52
2023/01/16 14:55:26;;;;;;;;;;;24.50;38.80;;;;;;4999137;28;19925;-51
2023/01/16 14:57:52;;;;;;;;;;;24.50;38.80;;;;;;5029328;28;19913;-51
2023/01/16 15:00:18;;;;;;;;;;;24.50;38.80;;;;;;5009976;28;19922;-51
2023/01/16 15:02:49;;;;;;;;;;;24.50;38.80;;;;;;5008675;28;19924;-51
2023/01/16 15:05:20;;;;;;;;;;;24.50;38.80;;;;;;5042250;28;19967;-52
2023/01/16 15:07:48;;;;;;;;;;;24.50;38.80;;;;;;5033182;28;19914;-52
2023/01/16 15:10:22;;;;;;;;;;;24.40;38.90;;;;;;5005903;28;19917;-51
2023/01/16 15:12:52;;;;;;;;;;;24.30;39.00;;;;;;4997180;28;19914;-51
2023/01/16 15:15:22;;;;;;;;;;;24.30;39.10;;;;;;5001795;28;20400;-52
2023/01/16 15:23:16;;;;;;;;;;;24.30;38.90;;;;;;5014347;28;20358;-52
2023/01/16 15:25:48;;;;;;;;;;;24.40;38.70;;;;;;5006782;28;19921;-52
2023/01/16 15:28:20;;;;;;;;;;;24.50;38.70;;;;;;5010028;28;19917;-51
2023/01/16 15:30:50;;;;;;;;;;;24.50;38.60;;;;;;5004038;28;20373;-52
2023/01/16 15:36:13;;;;;;;;;;;24.50;38.70;;;;;;4997498;28;20389;-52
2023/01/16 15:38:39;;;;;;;;;;;24.50;38.50;;;;;;5052008;28;19921;-51
2023/01/16 15:41:04;;;;;;;;;;;24.60;38.50;;;;;;5009352;28;19932;-51
2023/01/16 15:46:34;;;;;;;;;;;24.60;38.40;;;;;;5008946;28;20425;-51
2023/01/16 15:49:02;;;;;;;;;;;24.60;38.50;;;;;;5037436;28;19914;-50